createdAt,value
2019-04-01T00:00:41.207Z,67.16
2019-04-01T00:03:10.926Z,67.53
2019-04-01T00:05:39.610Z,68.19
2019-04-01T00:08:08.241Z,68.24
2019-04-01T00:10:36.985Z,68.31
2019-04-01T00:13:05.642Z,67.54
2019-04-01T00:15:34.091Z,71.06
2019-04-01T00:18:02.522Z,69.82
2019-04-01T00:20:31.292Z,69.36
2019-04-01T00:22:59.948Z,70.23
2019-04-01T00:25:28.511Z,70.19
2019-04-01T00:27:57.170Z,71.83
2019-04-01T00:30:25.666Z,70.84
2019-04-01T00:32:54.396Z,69.91
2019-04-01T00:35:23.057Z,71.52
2019-04-01T00:37:51.802Z,70.36
2019-04-01T00:40:20.373Z,69.22
2019-04-01T00:42:54.528Z,71.12
2019-04-01T00:45:23.646Z,70.54
2019-04-01T00:47:52.201Z,70.38
2019-04-01T00:50:20.850Z,70.25
2019-04-01T00:52:49.510Z,71.33
2019-04-01T00:55:18.135Z,71.41
2019-04-01T00:57:46.816Z,71.00
2019-04-01T01:00:17.372Z,69.95
2019-04-01T01:02:45.914Z,70.38
2019-04-01T01:05:14.550Z,70.31
2019-04-01T01:07:43.211Z,70.81
2019-04-01T01:10:12.093Z,70.80
2019-04-01T01:12:40.651Z,71.33
2019-04-01T01:15:09.407Z,70.93
2019-04-01T01:17:37.984Z,71.71
2019-04-01T01:20:06.856Z,71.69
2019-04-01T01:22:35.507Z,70.21
2019-04-01T01:25:04.390Z,73.67
2019-04-01T01:27:33.047Z,71.97
2019-04-01T01:30:01.678Z,71.40
2019-04-01T01:32:30.542Z,70.65
2019-04-01T01:34:59.119Z,72.28
2019-04-01T01:37:27.735Z,71.09
2019-04-01T01:39:56.595Z,70.28
2019-04-01T01:42:25.220Z,72.08
2019-04-01T01:44:56.113Z,73.36
2019-04-01T01:47:24.710Z,72.85
2019-04-01T01:49:53.156Z,72.87
2019-04-01T01:52:22.698Z,72.04
2019-04-01T01:54:51.442Z,70.86
2019-04-01T01:57:20.143Z,70.09
2019-04-01T01:59:48.734Z,70.15
2019-04-01T02:02:17.375Z,70.49
2019-04-01T02:04:46.049Z,71.79
2019-04-01T02:07:14.658Z,73.27
2019-04-01T02:09:43.253Z,74.03
2019-04-01T02:12:11.953Z,71.28
2019-04-01T02:14:40.634Z,72.52
2019-04-01T02:17:09.373Z,73.65
2019-04-01T02:19:37.855Z,73.47
2019-04-01T02:22:06.602Z,73.37
2019-04-01T02:24:35.735Z,70.87
2019-04-01T02:27:04.417Z,71.92
2019-04-01T02:29:33.257Z,73.51
2019-04-01T02:32:01.951Z,71.53
2019-04-01T02:34:30.863Z,71.24
2019-04-01T02:36:59.674Z,69.92
2019-04-01T02:39:28.377Z,71.43
2019-04-01T02:41:57.013Z,71.99
2019-04-01T02:44:25.713Z,70.94
2019-04-01T02:46:54.363Z,71.20
2019-04-01T02:49:22.993Z,71.14
2019-04-01T02:51:51.556Z,70.16
2019-04-01T02:54:20.190Z,70.58
2019-04-01T02:56:48.761Z,70.98
2019-04-01T02:59:17.400Z,71.49
2019-04-01T03:01:46.082Z,71.36
2019-04-01T03:04:14.725Z,71.17
2019-04-01T03:06:43.333Z,73.14
2019-04-01T03:09:11.921Z,70.78
2019-04-01T03:11:40.581Z,71.88
2019-04-01T03:14:09.246Z,72.58
2019-04-01T03:16:37.785Z,72.25
2019-04-01T03:19:06.339Z,73.25
2019-04-01T03:21:34.875Z,74.43
2019-04-01T03:24:03.717Z,71.47
2019-04-01T03:26:32.398Z,73.29
2019-04-01T03:29:01.045Z,72.32
2019-04-01T03:31:29.758Z,73.29
2019-04-01T03:33:58.449Z,72.84
2019-04-01T03:36:27.109Z,71.86
2019-04-01T03:38:55.662Z,69.45
2019-04-01T03:41:24.403Z,70.18
2019-04-01T03:43:52.986Z,69.90
2019-04-01T03:46:21.703Z,70.33
2019-04-01T03:48:50.373Z,70.10
2019-04-01T03:51:19.062Z,70.05
2019-04-01T03:53:47.739Z,72.11
2019-04-01T03:56:16.388Z,71.69
2019-04-01T03:58:44.945Z,72.09
2019-04-01T04:01:13.527Z,70.94
2019-04-01T04:03:42.263Z,70.27
2019-04-01T04:06:10.833Z,71.84
2019-04-01T04:08:39.487Z,72.65
2019-04-01T04:11:08.174Z,71.59
2019-04-01T04:13:36.869Z,71.91
2019-04-01T04:16:05.581Z,72.52
2019-04-01T04:18:34.178Z,72.55
2019-04-01T04:21:02.731Z,73.06
2019-04-01T04:23:31.526Z,74.16
2019-04-01T04:26:00.177Z,73.34
2019-04-01T04:28:28.840Z,72.81
2019-04-01T04:30:57.469Z,73.32
2019-04-01T04:33:26.117Z,72.76
2019-04-01T04:35:54.700Z,72.04
2019-04-01T04:38:23.399Z,71.02
2019-04-01T04:40:51.914Z,72.40
2019-04-01T04:43:20.577Z,72.03
2019-04-01T04:45:49.136Z,72.78
2019-04-01T04:48:17.809Z,70.88
2019-04-01T04:50:46.526Z,71.04
2019-04-01T04:53:15.267Z,71.60
2019-04-01T04:55:43.987Z,72.56
2019-04-01T04:58:12.741Z,72.17
2019-04-01T05:00:41.379Z,70.71
2019-04-01T05:03:10.167Z,71.49
2019-04-01T05:05:38.758Z,69.78
2019-04-01T05:08:07.323Z,70.28
2019-04-01T05:10:35.871Z,68.15
2019-04-01T05:13:04.656Z,69.30
2019-04-01T05:15:33.611Z,69.65
2019-04-01T05:18:02.283Z,67.64
2019-04-01T05:20:31.625Z,68.97
2019-04-01T05:23:01.690Z,70.30
2019-04-01T05:25:32.029Z,69.12
2019-04-01T05:28:02.349Z,68.76
2019-04-01T05:30:33.065Z,68.73
2019-04-01T05:33:03.413Z,68.63
2019-04-01T05:35:34.661Z,69.04
2019-04-01T05:38:04.267Z,69.31
2019-04-01T05:40:33.998Z,67.92
2019-04-01T05:43:02.946Z,67.46
2019-04-01T05:45:31.714Z,65.95
2019-04-01T05:48:00.535Z,65.48
2019-04-01T05:50:29.122Z,64.80
2019-04-01T05:52:57.924Z,64.71
2019-04-01T05:55:26.759Z,64.62
2019-04-01T05:57:55.585Z,63.44
2019-04-01T06:00:29.870Z,63.74
2019-04-01T06:02:58.747Z,62.71
2019-04-01T06:05:29.670Z,62.41
2019-04-01T06:07:58.663Z,62.60
2019-04-01T06:10:27.344Z,62.34
2019-04-01T06:12:56.548Z,61.71
2019-04-01T06:15:25.303Z,61.75
2019-04-01T06:17:54.662Z,60.83
2019-04-01T06:20:23.348Z,60.50
2019-04-01T06:22:52.012Z,60.30
2019-04-01T06:25:21.163Z,60.11
2019-04-01T06:27:50.084Z,60.36
2019-04-01T06:30:18.957Z,59.61
2019-04-01T06:32:47.827Z,59.39
2019-04-01T06:35:16.407Z,59.02
2019-04-01T06:37:45.160Z,58.27
2019-04-01T06:40:13.934Z,58.10
2019-04-01T06:42:42.605Z,57.81
2019-04-01T06:45:12.771Z,58.20
2019-04-01T06:47:41.829Z,58.35
2019-04-01T06:50:10.807Z,57.67
2019-04-01T06:52:39.550Z,57.53
2019-04-01T06:55:08.444Z,57.58
2019-04-01T06:57:37.109Z,56.80
2019-04-01T07:00:06.207Z,56.64
2019-04-01T07:02:35.047Z,55.81
2019-04-01T07:05:04.119Z,55.94
2019-04-01T07:07:32.799Z,55.86
2019-04-01T07:10:02.196Z,55.93
2019-04-01T07:12:31.082Z,55.87
2019-04-01T07:14:59.704Z,55.24
2019-04-01T07:17:28.817Z,54.87
2019-04-01T07:19:57.486Z,54.90
2019-04-01T07:22:26.313Z,54.38
2019-04-01T07:24:55.159Z,53.70
2019-04-01T07:27:24.743Z,53.59
2019-04-01T07:29:53.411Z,52.49
2019-04-01T07:32:22.069Z,52.46
2019-04-01T07:34:50.868Z,52.67
2019-04-01T07:37:19.635Z,52.46
2019-04-01T07:39:48.364Z,52.08
2019-04-01T07:42:17.028Z,51.73
2019-04-01T07:44:45.696Z,51.07
2019-04-01T07:47:14.361Z,50.85
2019-04-01T07:49:43.006Z,50.96
2019-04-01T07:52:11.900Z,50.56
2019-04-01T07:54:40.872Z,49.98
2019-04-01T07:57:09.517Z,50.42
2019-04-01T07:59:38.308Z,49.63
2019-04-01T08:02:06.937Z,49.12
2019-04-01T08:04:36.119Z,49.13
2019-04-01T08:07:05.062Z,49.31
2019-04-01T08:09:33.697Z,48.44
2019-04-01T08:12:02.245Z,48.98
2019-04-01T08:14:30.921Z,48.10
2019-04-01T08:16:59.851Z,48.50
2019-04-01T08:19:28.413Z,48.17
2019-04-01T08:21:57.281Z,47.88
2019-04-01T08:24:25.892Z,48.22
2019-04-01T08:26:54.458Z,48.08
2019-04-01T08:29:30.208Z,47.99
2019-04-01T08:31:53.543Z,47.95
2019-04-01T08:34:22.229Z,48.32
2019-04-01T08:36:50.971Z,48.51
2019-04-01T08:39:19.737Z,47.99
2019-04-01T08:41:48.305Z,47.24
2019-04-01T08:44:17.482Z,47.49
2019-04-01T08:46:46.094Z,46.86
2019-04-01T08:49:14.744Z,46.87
2019-04-01T08:51:43.611Z,46.33
2019-04-01T08:54:12.217Z,46.67
2019-04-01T08:56:40.872Z,46.95
2019-04-01T08:59:09.756Z,45.73
2019-04-01T09:01:38.448Z,45.82
2019-04-01T09:04:07.048Z,45.43
2019-04-01T09:06:35.754Z,45.37
2019-04-01T09:09:06.039Z,45.72
2019-04-01T09:11:38.238Z,45.15
2019-04-01T09:14:05.515Z,44.64
2019-04-01T09:16:35.020Z,45.22
2019-04-01T09:19:03.791Z,44.11
2019-04-01T09:21:32.485Z,44.76
2019-04-01T09:24:01.072Z,44.86
2019-04-01T09:26:29.629Z,44.01
2019-04-01T09:28:58.307Z,45.20
2019-04-01T09:31:26.881Z,44.44
2019-04-01T09:33:55.442Z,43.49
2019-04-01T09:36:24.130Z,44.52
2019-04-01T09:38:52.822Z,44.34
2019-04-01T09:41:21.530Z,43.92
2019-04-01T09:43:50.186Z,44.67
2019-04-01T09:46:18.753Z,43.75
2019-04-01T09:48:47.410Z,43.18
2019-04-01T09:51:16.262Z,43.23
2019-04-01T09:53:44.871Z,43.65
2019-04-01T09:56:13.434Z,42.89
2019-04-01T09:58:42.041Z,42.47
2019-04-01T10:01:10.788Z,42.35
2019-04-01T10:03:39.794Z,42.64
2019-04-01T10:06:10.398Z,41.91
2019-04-01T10:08:42.680Z,41.93
2019-04-01T10:11:12.419Z,42.33
2019-04-01T10:13:39.879Z,41.77
2019-04-01T10:16:08.558Z,41.33
2019-04-01T10:18:37.161Z,41.47
2019-04-01T10:21:05.925Z,41.25
2019-04-01T10:23:34.571Z,42.39
2019-04-01T10:26:03.460Z,41.42
2019-04-01T10:28:32.489Z,41.43
2019-04-01T10:31:01.432Z,41.43
2019-04-01T10:33:30.210Z,41.03
2019-04-01T10:35:58.805Z,40.99
2019-04-01T10:38:27.548Z,40.70
2019-04-01T10:40:56.325Z,41.28
2019-04-01T10:43:24.858Z,41.16
2019-04-01T10:45:53.520Z,41.06
2019-04-01T10:48:22.222Z,40.11
2019-04-01T10:50:51.018Z,37.75
2019-04-01T10:53:19.610Z,37.72
2019-04-01T10:55:48.374Z,37.89
2019-04-01T10:58:16.989Z,38.35
2019-04-01T11:00:45.823Z,38.07
2019-04-01T11:03:14.404Z,37.97
2019-04-01T11:05:43.019Z,37.89
2019-04-01T11:08:11.585Z,37.69
2019-04-01T11:10:40.509Z,35.27
2019-04-01T11:13:09.211Z,35.49
2019-04-01T11:15:37.865Z,35.74
2019-04-01T11:18:07.076Z,36.88
2019-04-01T11:20:36.157Z,36.10
2019-04-01T11:23:05.508Z,36.46
2019-04-01T11:25:34.171Z,37.25
2019-04-01T11:28:02.952Z,37.84
2019-04-01T11:30:31.961Z,37.53
2019-04-01T11:33:00.756Z,36.73
2019-04-01T11:35:29.508Z,37.25
2019-04-01T11:37:58.053Z,37.27
2019-04-01T11:40:26.624Z,37.18
2019-04-01T11:42:55.578Z,35.26
2019-04-01T11:45:24.227Z,35.56
2019-04-01T11:47:53.111Z,35.52
2019-04-01T11:50:21.931Z,35.21
2019-04-01T11:52:50.812Z,35.61
2019-04-01T11:55:19.323Z,35.09
2019-04-01T11:57:48.103Z,35.20
2019-04-01T12:00:18.023Z,35.76
2019-04-01T12:02:46.794Z,35.91
2019-04-01T12:05:15.446Z,35.17
2019-04-01T12:07:44.126Z,35.31
2019-04-01T12:10:13.125Z,34.83
2019-04-01T12:12:41.688Z,34.91
2019-04-01T12:15:12.310Z,33.63
2019-04-01T12:17:42.113Z,34.88
2019-04-01T12:20:11.141Z,34.02
2019-04-01T12:22:41.263Z,33.19
2019-04-01T12:25:10.566Z,34.40
2019-04-01T12:27:39.460Z,33.63
2019-04-01T12:30:08.269Z,33.79
2019-04-01T12:32:37.164Z,34.03
2019-04-01T12:35:06.317Z,33.09
2019-04-01T12:37:34.971Z,33.91
2019-04-01T12:40:04.214Z,32.55
2019-04-01T12:42:32.865Z,33.63
2019-04-01T12:45:01.758Z,33.41
2019-04-01T12:47:30.808Z,33.50
2019-04-01T12:49:59.872Z,33.61
2019-04-01T12:52:28.498Z,34.11
2019-04-01T12:55:00.686Z,33.93
2019-04-01T12:57:28.152Z,33.99
2019-04-01T12:59:56.961Z,34.18
2019-04-01T13:02:25.520Z,33.10
2019-04-01T13:04:54.079Z,34.50
2019-04-01T13:07:22.659Z,33.71
2019-04-01T13:09:51.645Z,34.22
2019-04-01T13:12:20.670Z,33.29
2019-04-01T13:14:49.423Z,32.76
2019-04-01T13:17:18.011Z,33.25
2019-04-01T13:19:46.806Z,34.33
2019-04-01T13:22:15.388Z,33.48
2019-04-01T13:24:44.303Z,33.89
2019-04-01T13:27:13.076Z,33.90
2019-04-01T13:29:41.721Z,34.21
2019-04-01T13:32:10.567Z,34.07
2019-04-01T13:34:39.387Z,34.08
2019-04-01T13:37:08.099Z,33.77
2019-04-01T13:39:37.145Z,34.10
2019-04-01T13:42:05.807Z,34.09
2019-04-01T13:44:37.195Z,33.78
2019-04-01T13:47:05.438Z,33.15
2019-04-01T13:49:34.669Z,33.95
2019-04-01T13:52:03.992Z,33.43
2019-04-01T13:54:32.714Z,33.26
2019-04-01T13:57:01.366Z,34.03
2019-04-01T13:59:30.149Z,34.56
2019-04-01T14:01:58.895Z,32.67
2019-04-01T14:04:27.803Z,33.08
2019-04-01T14:06:56.562Z,33.09
2019-04-01T14:09:25.344Z,33.37
2019-04-01T14:11:54.425Z,33.42
2019-04-01T14:14:23.018Z,33.75
2019-04-01T14:16:51.603Z,34.42
2019-04-01T14:19:20.309Z,34.54
2019-04-01T14:21:48.893Z,33.83
2019-04-01T14:24:17.675Z,34.33
2019-04-01T14:26:46.359Z,34.47
2019-04-01T14:29:16.647Z,33.93
2019-04-01T14:31:45.479Z,34.18
2019-04-01T14:34:22.894Z,34.24
2019-04-01T14:36:44.831Z,33.75
2019-04-01T14:39:13.762Z,33.41
2019-04-01T14:41:42.733Z,33.04
2019-04-01T14:44:11.394Z,33.02
2019-04-01T14:46:40.620Z,33.84
2019-04-01T14:49:09.418Z,33.18
2019-04-01T14:51:38.168Z,33.04
2019-04-01T14:54:07.012Z,33.33
2019-04-01T14:56:35.797Z,33.62
2019-04-01T14:59:04.375Z,33.02
2019-04-01T15:01:33.341Z,33.15
2019-04-01T15:04:02.000Z,33.76
2019-04-01T15:06:30.680Z,32.43
2019-04-01T15:08:59.362Z,33.01
2019-04-01T15:11:28.052Z,32.94
2019-04-01T15:13:59.924Z,33.09
2019-04-01T15:16:27.483Z,33.25
2019-04-01T15:18:56.091Z,34.08
2019-04-01T15:21:25.132Z,34.50
2019-04-01T15:23:54.201Z,32.85
2019-04-01T15:26:22.762Z,34.93
2019-04-01T15:28:51.513Z,33.29
2019-04-01T15:31:20.184Z,33.77
2019-04-01T15:33:49.419Z,33.28
2019-04-01T15:36:18.891Z,33.55
2019-04-01T15:38:47.758Z,35.57
2019-04-01T15:41:16.528Z,34.69
2019-04-01T15:43:45.184Z,35.45
2019-04-01T15:46:13.721Z,35.09
2019-04-01T15:48:43.066Z,36.83
2019-04-01T15:51:11.617Z,35.67
2019-04-01T15:53:40.433Z,35.68
2019-04-01T15:56:08.988Z,35.10
2019-04-01T15:58:37.620Z,36.01
2019-04-01T16:01:06.375Z,36.73
2019-04-01T16:03:35.065Z,35.29
2019-04-01T16:06:07.447Z,38.39
2019-04-01T16:08:34.630Z,36.25
2019-04-01T16:11:03.491Z,35.34
2019-04-01T16:13:32.315Z,37.10
2019-04-01T16:16:01.195Z,36.77
2019-04-01T16:18:30.996Z,37.70
2019-04-01T16:20:59.867Z,38.05
2019-04-01T16:23:28.606Z,39.78
2019-04-01T16:25:57.156Z,37.87
2019-04-01T16:28:25.994Z,36.83
2019-04-01T16:30:55.325Z,36.81
2019-04-01T16:33:24.852Z,38.26
2019-04-01T16:35:53.413Z,39.91
2019-04-01T16:38:22.089Z,38.03
2019-04-01T16:40:52.413Z,38.95
2019-04-01T16:43:21.215Z,38.82
2019-04-01T16:45:50.191Z,39.52
2019-04-01T16:48:18.851Z,39.14
2019-04-01T16:50:47.520Z,40.28
2019-04-01T16:53:16.267Z,39.58
2019-04-01T16:55:45.152Z,40.05
2019-04-01T16:58:13.997Z,42.38
2019-04-01T17:00:42.575Z,42.07
2019-04-01T17:03:13.583Z,40.35
2019-04-01T17:05:41.828Z,40.24
2019-04-01T17:08:10.884Z,40.75
2019-04-01T17:10:39.747Z,42.76
2019-04-01T17:13:08.435Z,41.04
2019-04-01T17:15:37.616Z,41.65
2019-04-01T17:18:06.192Z,41.34
2019-04-01T17:20:36.527Z,45.10
2019-04-01T17:23:05.315Z,42.11
2019-04-01T17:25:33.855Z,45.08
2019-04-01T17:28:03.119Z,42.51
2019-04-01T17:30:31.783Z,44.10
2019-04-01T17:33:00.869Z,46.61
2019-04-01T17:35:29.756Z,46.21
2019-04-01T17:37:58.416Z,41.93
2019-04-01T17:40:27.183Z,45.33
2019-04-01T17:42:55.978Z,42.98
2019-04-01T17:45:43.234Z,45.66
2019-04-01T17:48:21.228Z,44.34
2019-04-01T17:50:50.819Z,43.42
2019-04-01T17:53:19.636Z,43.40
2019-04-01T17:55:48.636Z,46.83
2019-04-01T17:58:17.310Z,44.81
2019-04-01T18:00:51.065Z,44.98
2019-04-01T18:03:19.852Z,44.70
2019-04-01T18:05:48.757Z,46.62
2019-04-01T18:08:17.894Z,45.84
2019-04-01T18:10:48.792Z,46.15
2019-04-01T18:13:17.863Z,45.43
2019-04-01T18:15:46.761Z,46.75
2019-04-01T18:18:26.662Z,46.06
2019-04-01T18:20:46.384Z,45.83
2019-04-01T18:23:15.177Z,46.24
2019-04-01T18:25:43.920Z,46.45
2019-04-01T18:28:13.070Z,48.29
2019-04-01T18:30:42.483Z,47.04
2019-04-01T18:33:11.243Z,49.19
2019-04-01T18:35:40.235Z,47.59
2019-04-01T18:38:22.386Z,48.16
2019-04-01T18:40:50.968Z,49.71
2019-04-01T18:43:19.671Z,49.43
2019-04-01T18:45:48.376Z,48.85
2019-04-01T18:48:17.129Z,50.02
2019-04-01T18:50:45.969Z,49.53
2019-04-01T18:53:15.089Z,50.00
2019-04-01T18:55:43.627Z,49.79
2019-04-01T18:58:12.368Z,51.17
2019-04-01T19:00:41.089Z,50.80
2019-04-01T19:03:10.672Z,51.16
2019-04-01T19:05:39.604Z,50.53
2019-04-01T19:08:08.306Z,51.55
2019-04-01T19:10:39.329Z,50.55
2019-04-01T19:13:12.190Z,51.03
2019-04-01T19:15:41.850Z,51.66
2019-04-01T19:18:11.053Z,51.33
2019-04-01T19:20:40.407Z,51.85
2019-04-01T19:23:09.457Z,51.70
2019-04-01T19:25:38.863Z,51.65
2019-04-01T19:28:07.964Z,50.98
2019-04-01T19:30:36.888Z,51.02
2019-04-01T19:33:06.796Z,50.76
2019-04-01T19:35:35.858Z,49.55
2019-04-01T19:38:07.211Z,50.65
2019-04-01T19:40:35.497Z,51.77
2019-04-01T19:43:04.213Z,51.78
2019-04-01T19:45:33.063Z,52.40
2019-04-01T19:48:02.358Z,51.34
2019-04-01T19:50:32.467Z,50.84
2019-04-01T19:53:02.849Z,51.73
2019-04-01T19:55:32.128Z,51.70
2019-04-01T19:58:00.900Z,51.14
2019-04-01T20:00:30.655Z,52.99
2019-04-01T20:02:59.835Z,51.67
2019-04-01T20:05:31.428Z,52.01
2019-04-01T20:08:00.193Z,52.59
2019-04-01T20:10:29.080Z,52.32
2019-04-01T20:12:57.899Z,51.10
2019-04-01T20:15:26.626Z,51.36
2019-04-01T20:17:55.478Z,51.60
2019-04-01T20:20:24.335Z,51.89
2019-04-01T20:22:53.924Z,52.41
2019-04-01T20:25:23.091Z,53.09
2019-04-01T20:27:51.676Z,52.63
2019-04-01T20:30:20.840Z,52.38
2019-04-01T20:32:49.502Z,52.73
2019-04-01T20:35:23.809Z,52.58
2019-04-01T20:37:49.102Z,51.71
2019-04-01T20:40:18.143Z,52.44
2019-04-01T20:42:47.364Z,52.49
2019-04-01T20:45:16.222Z,54.38
2019-04-01T20:47:45.010Z,51.91
2019-04-01T20:50:14.062Z,53.13
2019-04-01T20:52:42.815Z,52.32
2019-04-01T20:55:13.281Z,51.94
2019-04-01T20:57:42.272Z,53.51
2019-04-01T21:00:11.350Z,54.52
2019-04-01T21:02:40.112Z,54.08
2019-04-01T21:05:09.184Z,54.20
2019-04-01T21:07:37.996Z,53.89
2019-04-01T21:10:07.295Z,55.33
2019-04-01T21:12:36.142Z,55.43
2019-04-01T21:15:07.066Z,54.38
2019-04-01T21:17:36.009Z,54.06
2019-04-01T21:20:05.467Z,55.25
2019-04-01T21:22:34.243Z,55.03
2019-04-01T21:25:03.062Z,56.10
2019-04-01T21:27:31.811Z,56.93
2019-04-01T21:30:00.497Z,55.40
2019-04-01T21:32:29.386Z,55.12
2019-04-01T21:34:58.002Z,55.86
2019-04-01T21:37:26.570Z,56.85
2019-04-01T21:39:55.429Z,56.08
2019-04-01T21:42:24.107Z,57.31
2019-04-01T21:44:52.765Z,57.61
2019-04-01T21:47:21.440Z,58.29
2019-04-01T21:49:49.992Z,59.21
2019-04-01T21:52:18.571Z,58.24
2019-04-01T21:54:47.258Z,58.63
2019-04-01T21:57:15.908Z,58.35
2019-04-01T21:59:45.143Z,58.67
2019-04-01T22:02:15.184Z,58.06
2019-04-01T22:04:43.767Z,58.37
2019-04-01T22:07:12.340Z,58.31
2019-04-01T22:09:41.092Z,58.39
2019-04-01T22:12:09.532Z,59.23
2019-04-01T22:14:38.201Z,59.66
2019-04-01T22:17:06.970Z,60.32
2019-04-01T22:19:35.541Z,58.81
2019-04-01T22:22:04.110Z,59.84
2019-04-01T22:24:33.032Z,60.49
2019-04-01T22:27:04.404Z,59.98
2019-04-01T22:29:33.196Z,59.20
2019-04-01T22:32:01.855Z,59.21
2019-04-01T22:34:30.591Z,60.52
2019-04-01T22:36:59.156Z,60.16
2019-04-01T22:39:27.802Z,60.48
2019-04-01T22:41:58.257Z,59.48
2019-04-01T22:44:29.459Z,58.70
2019-04-01T22:46:58.004Z,59.39
2019-04-01T22:49:26.762Z,63.60
2019-04-01T22:51:55.335Z,59.74
2019-04-01T22:54:23.923Z,60.08
2019-04-01T22:56:52.583Z,60.78
2019-04-01T22:59:21.160Z,60.31
2019-04-01T23:01:49.750Z,60.78
2019-04-01T23:04:18.305Z,60.72
2019-04-01T23:06:47.044Z,60.49
2019-04-01T23:09:15.702Z,59.87
2019-04-01T23:11:44.382Z,61.27
2019-04-01T23:14:13.067Z,61.49
2019-04-01T23:16:41.778Z,60.75
2019-04-01T23:19:10.450Z,63.91
2019-04-01T23:21:39.143Z,63.49
2019-04-01T23:24:07.731Z,62.54
2019-04-01T23:26:36.492Z,60.81
2019-04-01T23:29:05.080Z,62.32
2019-04-01T23:31:33.678Z,62.66
2019-04-01T23:34:02.370Z,62.85
2019-04-01T23:36:31.155Z,63.04
2019-04-01T23:38:59.848Z,62.39
2019-04-01T23:41:30.064Z,62.47
2019-04-01T23:43:58.671Z,61.50
2019-04-01T23:46:27.330Z,62.29
2019-04-01T23:48:55.995Z,63.18
2019-04-01T23:51:24.566Z,63.00
2019-04-01T23:53:53.371Z,62.60
2019-04-01T23:56:21.953Z,63.05
2019-04-01T23:58:51.189Z,62.52
